Aviation Digital Data Service (ADDS)

Output produced by METARs form (1001 UTC 12 December 2017)
found at http://www.aviationweather.gov/adds/metars/
 
KGLH 120953Z AUTO 33009KT 10SM CLR 08/M02 A3009 RMK AO2 SLP197 T00781022
KGLH 120853Z AUTO 33012KT 10SM CLR 09/M03 A3008 RMK AO2 SLP192 T00941028 53019
KGLH 120753Z AUTO 30007KT 10SM CLR 07/M03 A3005 RMK AO2 SLP184 T00671028
KGLH 120653Z AUTO 34006KT 10SM CLR 08/M03 A3003 RMK AO2 SLP177 T00781028
KGLH 120553Z AUTO 33011KT 10SM CLR 12/M02 A3002 RMK AO2 SLP173 T01171022 10150 20083 402000011 53016
KGLH 120453Z AUTO 28009KT 10SM CLR 13/00 A2999 RMK AO2 SLP163 T01280000
KGLH 120353Z AUTO 24013KT 10SM CLR 14/01 A2997 RMK AO2 SLP156 T01440006
KGLH 120253Z AUTO 22010KT 10SM CLR 13/01 A2998 RMK AO2 SLP158 T01280011 58007
KGLH 120153Z AUTO 22010KT 10SM CLR 13/01 A2999 RMK AO2 SLP163 T01280011
KGLH 120053Z AUTO 20008KT 10SM CLR 09/02 A2999 RMK AO2 SLP165 T00940017
KGLH 112353Z 19009KT 10SM CLR 12/01 A3000 RMK AO2 SLP165 T01170011 10200 20106 56010
KGLH 112253Z 20010KT 10SM CLR 14/00 A3000 RMK AO2 SLP168 T01390000
KGLH 112153Z 21009KT 10SM CLR 19/00 A3001 RMK AO2 SLP171 T01890000
KGLH 112053Z 21014KT 10SM CLR 20/M01 A3003 RMK AO2 SLP176 T02001006 56037
KGLH 111953Z 22011KT 10SM CLR 20/M01 A3005 RMK AO2 SLP184 T02001011
KGLH 111853Z 22012KT 10SM CLR 19/M01 A3009 RMK AO2 SLP198 T01891011
KGLH 111753Z 23008KT 10SM CLR 17/M01 A3014 RMK AO2 SLP212 T01721011 10178 20011 58021
KGLH 111653Z 24007KT 10SM CLR 15/M01 A3017 RMK AO2 SLP225 T01501011
KGLH 111553Z 23005KT 10SM CLR 11/01 A3019 RMK AO2 SLP233 T01110006
KGLH 111453Z 25005KT 10SM CLR 08/01 A3020 RMK AO2 SLP234 T00780006 56003
KGLH 111353Z 23004KT 10SM CLR 04/00 A3020 RMK AO2 SLP235 T00440000
KGLH 111253Z 22005KT 10SM CLR 02/M02 A3020 RMK AO2 SLP237 T00171022 $
KGLH 111153Z AUTO 00000KT 10SM CLR 04/M01 A3021 RMK AO2 SLP238 T00441011 10089 20011 55003 $
KGLH 111053Z AUTO 23004KT 10SM CLR 02/M02 A3021 RMK AO2 SLP237 T00221017 $
KGLH 110953Z AUTO 00000KT 10SM CLR 04/M01 A3020 RMK AO2 SLP235 T00441011 $
KGLH 110853Z AUTO 24003KT 10SM CLR 02/M02 A3022 RMK AO2 SLP241 T00221017 56002 $
KGLH 110753Z AUTO 24007KT 10SM CLR 05/M01 A3022 RMK AO2 SLP241 T00501006 $
KGLH 110653Z AUTO 25008KT 10SM CLR 08/M01 A3022 RMK AO2 SLP240 T00831006 $
KGLH 110553Z AUTO 25007KT 10SM CLR 08/M01 A3023 RMK AO2 SLP243 T00781006 10083 20050 401391039 58004 $
KGLH 110453Z AUTO 22010KT 10SM CLR 08/M01 A3023 RMK AO2 SLP245 T00781006 $
KGLH 110353Z AUTO 22008KT 10SM CLR 08/00 A3023 RMK AO2 SLP246 T00780000 $
KGLH 110253Z AUTO 21007KT 10SM CLR 07/M01 A3024 RMK AO2 SLP248 T00721006 58001 $
KGLH 110153Z AUTO 21008KT 10SM CLR 07/M01 A3024 RMK AO2 SLP251 T00671011 $
KGLH 110053Z AUTO 21009KT 10SM CLR 07/M02 A3024 RMK AO2 SLP251 T00671017 $
KGLH 102353Z 20006KT 10SM CLR 07/M03 A3024 RMK AO2 SLP250 T00671028 10139 20067 55001 $
KGLH 102253Z 20009KT 10SM CLR 10/M03 A3023 RMK AO2 SLP245 T01001028 $
KGLH 102153Z 22011KT 10SM FEW001 13/M03 A3024 RMK AO2 SLP248 T01331033 $
KGLH 102053Z 22012KT 10SM CLR 14/M04 A3024 RMK AO2 SLP250 T01391039 56030 $
KGLH 101953Z 22010KT 10SM FEW001 13/M05 A3027 RMK AO2 SLP258 T01331050 $
KGLH 101853Z 24010KT 10SM FEW001 13/M06 A3030 RMK AO2 SLP268 T01281056 $
KGLH 101753Z 24011KT 10SM CLR 12/M04 A3033 RMK AO2 SLP280 T01171044 10117 21039 58007 $
KGLH 101653Z 22013KT 10SM CLR 10/M05 A3036 RMK AO2 SLP288 T01001050 $
KGLH 101553Z 22012KT 10SM CLR 08/M03 A3036 RMK AO2 SLP291 T00831033 $
KGLH 101453Z 23007KT 10SM CLR 04/M02 A3035 RMK AO2 SLP287 T00441017 50004 $
KGLH 101353Z 00000KT 10SM CLR M01/M02 A3036 RMK AO2 SLP291 T10061017 $
KGLH 101253Z 20003KT 10SM CLR M04/M06 A3035 RMK AO2 SLP287 T10391056 $
KGLH 101153Z AUTO 00000KT 10SM CLR M02/M04 A3034 RMK AO2 SLP284 T10221044 10017 21039 53004 $
KGLH 101053Z AUTO 00000KT 10SM CLR M03/M05 A3033 RMK AO2 SLP279 T10281050 $
KGLH 100953Z AUTO 22003KT 10SM CLR M02/M05 A3033 RMK AO2 SLP279 T10221050 $
KGLH 100853Z AUTO 00000KT 10SM CLR M02/M05 A3033 RMK AO2 SLP279 T10221050 53010 $
KGLH 100753Z AUTO 21005KT 10SM CLR M03/M06 A3031 RMK AO2 SLP273 T10281056 $
KGLH 100653Z AUTO 00000KT 10SM CLR 00/M05 A3030 RMK AO2 SLP269 T00001050 $
KGLH 100553Z AUTO 02006KT 10SM CLR M01/M04 A3030 RMK AO2 SLP269 T10111039 10061 21011 401171056 51018 $
KGLH 100453Z AUTO 01010KT 10SM CLR 01/M03 A3029 RMK AO2 SLP265 T00111033 $
KGLH 100353Z AUTO 31004KT 10SM CLR M01/M04 A3027 RMK AO2 SLP260 T10061044 $
KGLH 100253Z AUTO 00000KT 10SM CLR 02/M03 A3025 RMK AO2 SLP252 T00221028 51022 $
KGLH 100153Z AUTO 00000KT 10SM CLR 04/M02 A3022 RMK AO2 SLP244 T00391022 $
KGLH 100053Z AUTO 34003KT 10SM CLR 04/M02 A3021 RMK AO2 SLP239 T00441017 $
KGLH 092353Z 36006KT 10SM CLR 07/M02 A3018 RMK AO2 SLP230 T00671017 10117 20056 53026 $
KGLH 092253Z 32005KT 10SM CLR 08/M02 A3015 RMK AO2 SLP219 T00831017 $
KGLH 092153Z 33010KT 10SM CLR 11/M03 A3013 RMK AO2 SLP211 T01111028 $
KGLH 092053Z 29011KT 10SM CLR 12/M03 A3010 RMK AO2 SLP203 T01171033 55004 $
KGLH 091953Z 30011KT 10SM CLR 11/M03 A3009 RMK AO2 SLP198 T01111028 $
KGLH 091853Z 29012KT 10SM CLR 10/M03 A3009 RMK AO2 SLP197 T01001033 $
KGLH 091753Z 29009KT 10SM CLR 08/M03 A3012 RMK AO2 SLP208 T00831033 10083 21033 58000 $
KGLH 091653Z 29011KT 10SM CLR 07/M05 A3012 RMK AO2 SLP211 T00671050 $
KGLH 091600Z 26015KT 10SM FEW002 05/M06 A3012 RMK AO2 T00501061 $
KGLH 091553Z 27012KT 10SM CLR 05/M06 A3012 RMK AO2 SLP210 T00501061 $
KGLH 091453Z 26010KT 10SM CLR 02/M06 A3012 RMK AO2 SLP208 T00221061 55000 $
KGLH 091353Z 25008KT 10SM CLR 00/M07 A3011 RMK AO2 SLP205 T00001067 $
KGLH 091253Z 25007KT 10SM CLR M02/M07 A3011 RMK AO2 SLP206 T10221072 $
KGLH 091153Z AUTO 25006KT CLR M03/M07 A3012 RMK AO2 SLP209 T10331072 11028 21056 55001 $
KGLH 091053Z AUTO 20004KT 10SM CLR M05/M07 A3011 RMK AO2 SLP207 T10501067